createdAt,value
2018-07-23T00:00:10.745Z,81.70
2018-07-23T00:05:37.296Z,81.40
2018-07-23T00:08:11.235Z,80.60
2018-07-23T00:10:46.064Z,80.70
2018-07-23T00:13:19.876Z,81.10
2018-07-23T00:15:54.388Z,81.30
2018-07-23T00:18:28.408Z,81.00
2018-07-23T00:21:07.928Z,81.00
2018-07-23T00:23:41.854Z,81.10
2018-07-23T00:29:05.543Z,81.10
2018-07-23T00:31:39.350Z,81.30
2018-07-23T00:34:13.873Z,80.90
2018-07-23T00:36:48.601Z,80.70
2018-07-23T00:39:23.431Z,81.00
2018-07-23T00:41:57.347Z,80.40
2018-07-23T00:44:31.868Z,80.60
2018-07-23T00:47:05.259Z,81.20
2018-07-23T00:52:32.213Z,80.50
2018-07-23T00:55:06.543Z,80.40
2018-07-23T01:00:34.841Z,80.80
2018-07-23T01:03:09.253Z,80.90
2018-07-23T01:05:43.793Z,81.40
2018-07-23T01:08:17.387Z,81.40
2018-07-23T01:10:51.807Z,81.10
2018-07-23T01:13:25.408Z,81.60
2018-07-23T01:15:59.421Z,81.30
2018-07-23T01:18:33.916Z,81.50
2018-07-23T01:21:08.158Z,82.00
2018-07-23T01:23:42.401Z,81.90
2018-07-23T01:26:18.331Z,82.10
2018-07-23T01:28:53.058Z,82.10
2018-07-23T01:31:28.804Z,82.00
2018-07-23T01:34:03.846Z,82.50
2018-07-23T01:36:38.364Z,82.80
2018-07-23T01:39:13.070Z,82.60
2018-07-23T01:41:45.981Z,82.50
2018-07-23T01:44:19.788Z,82.20
2018-07-23T01:49:48.175Z,82.00
2018-07-23T01:52:21.072Z,81.70
2018-07-23T01:54:56.812Z,81.00
2018-07-23T01:57:32.889Z,81.00
2018-07-23T02:00:09.566Z,80.90
2018-07-23T02:02:43.363Z,81.10
2018-07-23T02:05:18.880Z,81.30
2018-07-23T02:07:53.699Z,81.40
2018-07-23T02:10:29.840Z,81.10
2018-07-23T02:13:07.500Z,80.80
2018-07-23T02:15:42.328Z,80.80
2018-07-23T02:18:18.728Z,80.70
2018-07-23T02:20:53.012Z,80.50
2018-07-23T02:23:26.617Z,81.00
2018-07-23T02:26:02.263Z,81.10
2018-07-23T02:28:40.167Z,81.40
2018-07-23T02:31:15.586Z,81.80
2018-07-23T02:33:51.670Z,81.70
2018-07-23T02:36:27.197Z,81.60
2018-07-23T02:39:02.961Z,81.70
2018-07-23T02:41:51.213Z,81.30
2018-07-23T02:44:25.740Z,81.70
2018-07-23T02:47:00.258Z,81.90
2018-07-23T02:49:33.031Z,81.60
2018-07-23T02:55:06.532Z,81.10
2018-07-23T02:57:39.446Z,80.90
2018-07-23T03:00:13.663Z,81.10
2018-07-23T03:02:46.850Z,81.20
2018-07-23T03:05:20.762Z,81.10
2018-07-23T03:07:54.674Z,81.20
2018-07-23T03:10:28.141Z,81.30
2018-07-23T03:13:01.962Z,81.50
2018-07-23T03:15:34.733Z,81.30
2018-07-23T03:18:07.513Z,80.90
2018-07-23T03:20:40.325Z,80.70
2018-07-23T03:23:14.335Z,80.70
2018-07-23T03:25:48.780Z,80.70
2018-07-23T03:28:21.742Z,80.40
2018-07-23T03:30:56.344Z,80.30
2018-07-23T03:33:31.120Z,80.50
2018-07-23T03:36:05.209Z,80.10
2018-07-23T03:38:40.675Z,80.10
2018-07-23T03:41:16.815Z,80.00
2018-07-23T03:43:52.670Z,80.10
2018-07-23T03:46:27.398Z,79.80
2018-07-23T03:49:01.001Z,79.00
2018-07-23T03:51:36.647Z,79.30
2018-07-23T03:54:10.428Z,79.60
2018-07-23T03:56:44.152Z,79.70
2018-07-23T03:59:20.007Z,79.80
2018-07-23T04:01:54.032Z,79.90
2018-07-23T04:04:28.857Z,80.80
2018-07-23T04:07:02.483Z,80.10
2018-07-23T04:09:37.286Z,79.80
2018-07-23T04:12:11.888Z,79.30
2018-07-23T04:14:45.689Z,79.20
2018-07-23T04:17:21.507Z,79.70
2018-07-23T04:19:55.387Z,79.90
2018-07-23T04:22:30.993Z,80.10
2018-07-23T04:25:05.142Z,80.30
2018-07-23T04:27:38.743Z,80.60
2018-07-23T04:30:12.550Z,80.30
2018-07-23T04:32:45.229Z,80.60
2018-07-23T04:35:17.886Z,80.20
2018-07-23T04:37:51.009Z,79.40
2018-07-23T04:40:24.600Z,78.80
2018-07-23T04:42:57.587Z,78.80
2018-07-23T04:45:32.110Z,78.90
2018-07-23T04:48:06.756Z,79.00
2018-07-23T04:50:39.657Z,79.40
2018-07-23T04:53:13.635Z,79.40
2018-07-23T04:55:47.233Z,79.80
2018-07-23T04:58:21.946Z,80.50
2018-07-23T05:00:56.662Z,80.60
2018-07-23T05:03:30.778Z,80.70
2018-07-23T05:06:07.210Z,80.60
2018-07-23T05:08:41.086Z,80.90
2018-07-23T05:11:15.907Z,81.10
2018-07-23T05:13:50.738Z,81.10
2018-07-23T05:16:26.491Z,81.80
2018-07-23T05:19:01.101Z,81.90
2018-07-23T05:21:36.875Z,81.80
2018-07-23T05:24:09.957Z,82.00
2018-07-23T05:26:44.274Z,81.70
2018-07-23T05:29:17.573Z,81.40
2018-07-23T05:31:51.097Z,81.30
2018-07-23T05:34:23.824Z,81.80
2018-07-23T05:36:56.735Z,82.50
2018-07-23T05:39:30.425Z,83.40
2018-07-23T05:42:03.534Z,82.50
2018-07-23T05:44:37.027Z,82.20
2018-07-23T05:47:11.692Z,82.40
2018-07-23T05:49:44.742Z,81.90
2018-07-23T05:52:18.322Z,82.10
2018-07-23T06:12:09.983Z,81.30
2018-07-23T06:14:45.736Z,80.90
2018-07-23T06:17:19.215Z,81.20
2018-07-23T06:19:52.004Z,81.50
2018-07-23T06:22:26.851Z,82.20
2018-07-23T06:25:00.653Z,82.50
2018-07-23T06:27:33.640Z,82.80
2018-07-23T06:30:08.408Z,82.10
2018-07-23T06:32:43.198Z,81.40
2018-07-23T06:35:17.926Z,81.60
2018-07-23T06:55:08.140Z,83.00
2018-07-23T06:57:43.070Z,83.00
2018-07-23T07:00:17.489Z,83.40
2018-07-23T07:02:53.312Z,82.50
2018-07-23T07:22:44.776Z,81.20
2018-07-23T07:25:19.941Z,80.90
2018-07-23T07:27:53.517Z,81.30
2018-07-23T07:30:27.117Z,80.80
2018-07-23T07:33:01.679Z,80.80
2018-07-23T07:35:35.451Z,80.80
2018-07-23T07:38:08.345Z,80.80
2018-07-23T07:40:42.342Z,79.80
2018-07-23T07:43:15.124Z,80.50
2018-07-23T07:45:49.583Z,80.70
2018-07-23T07:48:23.429Z,80.80
2018-07-23T07:50:56.236Z,81.50
2018-07-23T07:53:31.077Z,81.80
2018-07-23T07:56:04.055Z,82.00
2018-07-23T07:58:37.540Z,82.00
2018-07-23T08:01:11.673Z,81.50
2018-07-23T08:03:46.189Z,81.50
2018-07-23T08:06:21.740Z,81.30
2018-07-23T08:08:56.374Z,80.20
2018-07-23T08:11:29.424Z,80.40
2018-07-23T08:14:03.462Z,80.40
2018-07-23T08:16:38.293Z,79.90
2018-07-23T08:19:11.997Z,79.90
2018-07-23T08:21:45.905Z,81.40
2018-07-23T08:24:19.409Z,78.80
2018-07-23T08:26:53.312Z,80.10
2018-07-23T08:29:27.016Z,83.20
2018-07-23T08:32:01.029Z,76.50
2018-07-23T08:51:54.945Z,61.60
2018-07-23T08:54:29.956Z,59.30
2018-07-23T08:57:04.556Z,58.30
2018-07-23T08:59:38.594Z,58.30
2018-07-23T09:02:12.113Z,56.80
2018-07-23T09:04:45.901Z,56.20
2018-07-23T09:07:19.807Z,57.80
2018-07-23T09:09:54.640Z,56.30
2018-07-23T09:12:30.389Z,58.40
2018-07-23T09:15:04.199Z,58.10
2018-07-23T09:17:37.799Z,59.20
2018-07-23T09:20:11.914Z,59.20
2018-07-23T09:22:47.355Z,58.90
2018-07-23T09:25:22.913Z,59.40
2018-07-23T09:30:56.158Z,62.20
2018-07-23T09:33:31.355Z,59.70
2018-07-23T09:36:06.190Z,59.10
2018-07-23T09:41:37.457Z,58.70
2018-07-23T09:44:12.593Z,57.00
2018-07-23T09:46:47.419Z,56.00
2018-07-23T09:49:24.299Z,56.60
2018-07-23T09:51:58.821Z,55.40
2018-07-23T09:54:31.480Z,56.10
2018-07-23T09:57:07.225Z,54.90
2018-07-23T09:59:41.037Z,55.10
2018-07-23T10:02:16.405Z,55.50
2018-07-23T10:04:50.003Z,54.70
2018-07-23T10:07:25.440Z,54.90
2018-07-23T10:09:58.537Z,55.60
2018-07-23T10:12:32.348Z,55.60
2018-07-23T10:15:10.249Z,56.70
2018-07-23T10:35:04.397Z,55.40
2018-07-23T10:37:40.095Z,55.70
2018-07-23T10:40:13.781Z,56.10
2018-07-23T10:42:48.430Z,53.70
2018-07-23T10:45:21.411Z,52.40
2018-07-23T10:47:56.754Z,52.50
2018-07-23T10:50:32.814Z,50.10
2018-07-23T10:53:07.746Z,49.00
2018-07-23T10:55:43.414Z,48.40
2018-07-23T10:58:17.406Z,49.60
2018-07-23T11:00:53.158Z,48.30
2018-07-23T11:09:13.694Z,48.00
2018-07-23T11:11:48.218Z,46.90
2018-07-23T11:14:23.150Z,45.00
2018-07-23T11:16:57.776Z,46.30
2018-07-23T11:19:32.605Z,47.90
2018-07-23T11:22:07.334Z,48.60
2018-07-23T11:24:45.542Z,48.40
2018-07-23T11:44:33.293Z,50.70
2018-07-23T11:47:08.041Z,49.00
2018-07-23T11:49:42.952Z,50.00
2018-07-23T11:52:17.784Z,50.30
2018-07-23T11:54:52.924Z,51.30
2018-07-23T11:57:27.451Z,51.50
2018-07-23T12:00:02.997Z,51.40
2018-07-23T12:02:38.545Z,48.90
2018-07-23T12:22:29.054Z,49.20
2018-07-23T12:25:02.636Z,49.80
2018-07-23T12:27:37.593Z,48.60
2018-07-23T12:30:13.112Z,45.90
2018-07-23T12:32:46.928Z,45.40
2018-07-23T12:35:21.101Z,45.50
2018-07-23T12:37:54.657Z,46.90
2018-07-23T12:40:29.149Z,46.40
2018-07-23T12:43:03.998Z,47.20
2018-07-23T12:45:37.918Z,48.50
2018-07-23T12:48:11.519Z,48.70
2018-07-23T12:50:45.426Z,48.70
2018-07-23T12:53:20.257Z,48.60
2018-07-23T12:55:53.858Z,48.00
2018-07-23T12:58:26.641Z,48.50
2018-07-23T13:01:01.471Z,48.80
2018-07-23T13:03:36.301Z,49.80
2018-07-23T13:06:09.879Z,50.90
2018-07-23T13:08:43.812Z,51.70
2018-07-23T13:11:20.177Z,52.50
2018-07-23T13:13:53.269Z,53.40
2018-07-23T13:16:29.019Z,53.80
2018-07-23T13:19:10.666Z,53.80
2018-07-23T13:21:44.510Z,54.50
2018-07-23T13:24:20.389Z,55.50
2018-07-23T13:26:55.010Z,56.10
2018-07-23T13:29:28.904Z,55.80
2018-07-23T13:49:23.310Z,51.00
2018-07-23T13:51:58.452Z,50.70
2018-07-23T13:54:32.663Z,50.00
2018-07-23T13:57:09.952Z,48.30
2018-07-23T13:59:45.168Z,47.40
2018-07-23T14:02:18.983Z,46.30
2018-07-23T14:16:04.247Z,51.70
2018-07-23T14:18:41.434Z,53.00
2018-07-23T14:21:14.832Z,51.70
2018-07-23T14:23:54.165Z,51.50
2018-07-23T14:26:28.073Z,52.50
2018-07-23T14:29:03.511Z,48.60
2018-07-23T14:31:37.636Z,48.30
2018-07-23T14:34:11.540Z,49.60
2018-07-23T14:36:45.141Z,48.20
2018-07-23T14:39:19.601Z,49.70
2018-07-23T14:41:54.495Z,51.20
2018-07-23T14:44:29.199Z,52.40
2018-07-23T14:47:04.266Z,50.70
2018-07-23T14:49:39.655Z,51.20
2018-07-23T14:52:14.640Z,51.60
2018-07-23T14:54:51.312Z,52.40
2018-07-23T14:57:26.916Z,50.60
2018-07-23T15:00:04.045Z,50.30
2018-07-23T15:02:39.076Z,50.50
2018-07-23T15:05:13.907Z,52.00
2018-07-23T15:07:48.962Z,52.20
2018-07-23T15:10:23.977Z,51.00
2018-07-23T15:12:58.813Z,51.90
2018-07-23T15:15:34.356Z,53.50
2018-07-23T15:18:09.086Z,55.10
2018-07-23T15:20:42.991Z,54.60
2018-07-23T15:23:17.589Z,55.10
2018-07-23T15:25:50.411Z,54.50
2018-07-23T15:28:26.124Z,54.70
2018-07-23T15:30:59.814Z,54.60
2018-07-23T15:33:33.558Z,52.70
2018-07-23T15:36:08.696Z,53.80
2018-07-23T15:38:43.022Z,54.10
2018-07-23T15:41:17.230Z,52.70
2018-07-23T15:43:51.156Z,53.30
2018-07-23T15:46:24.797Z,53.30
2018-07-23T15:48:58.343Z,52.80
2018-07-23T15:51:32.250Z,52.70
2018-07-23T15:54:06.261Z,50.60
2018-07-23T15:56:40.475Z,50.80
2018-07-23T15:59:13.262Z,50.90
2018-07-23T16:01:48.296Z,50.20
2018-07-23T16:04:22.820Z,51.10
2018-07-23T16:06:59.082Z,51.40
2018-07-23T16:09:33.297Z,50.90
2018-07-23T16:12:09.049Z,50.00
2018-07-23T16:14:43.880Z,49.20
2018-07-23T16:17:17.686Z,50.10
2018-07-23T16:19:51.296Z,50.50
2018-07-23T16:22:25.095Z,51.80
2018-07-23T16:24:59.804Z,49.80
2018-07-23T16:27:32.915Z,47.90
2018-07-23T16:30:07.638Z,45.70
2018-07-23T16:32:41.181Z,46.70
2018-07-23T16:35:15.148Z,46.90
2018-07-23T16:37:48.750Z,46.70
2018-07-23T16:40:22.556Z,48.50
2018-07-23T16:42:56.136Z,48.60
2018-07-23T16:45:29.045Z,49.10
2018-07-23T16:48:02.952Z,49.40
2018-07-23T16:50:36.655Z,50.30
2018-07-23T16:53:10.768Z,51.10
2018-07-23T16:55:44.063Z,51.80
2018-07-23T16:58:18.656Z,51.70
2018-07-23T17:00:51.572Z,51.50
2018-07-23T17:03:25.342Z,52.60
2018-07-23T17:05:59.983Z,54.10
2018-07-23T17:08:34.941Z,53.20
2018-07-23T17:11:08.539Z,53.30
2018-07-23T17:13:42.181Z,54.10
2018-07-23T17:16:16.254Z,53.90
2018-07-23T17:18:49.684Z,54.20
2018-07-23T17:21:23.661Z,54.40
2018-07-23T17:23:57.570Z,55.00
2018-07-23T17:26:31.069Z,55.50
2018-07-23T17:29:04.065Z,56.20
2018-07-23T17:31:38.177Z,56.80
2018-07-23T17:34:13.296Z,57.00
2018-07-23T17:36:47.318Z,57.30
2018-07-23T17:39:20.808Z,57.60
2018-07-23T17:41:53.581Z,58.10
2018-07-23T17:44:28.429Z,58.20
2018-07-23T17:47:01.108Z,58.00
2018-07-23T17:49:35.136Z,58.40
2018-07-23T18:03:43.615Z,58.30
2018-07-23T18:06:17.327Z,59.00
2018-07-23T18:08:52.037Z,59.80
2018-07-23T18:11:26.264Z,59.20
2018-07-23T18:14:00.790Z,59.20
2018-07-23T18:16:46.574Z,60.10
2018-07-23T18:19:23.013Z,60.40
2018-07-23T18:21:56.136Z,60.10
2018-07-23T18:24:34.546Z,60.50
2018-07-23T18:27:11.725Z,61.00
2018-07-23T18:29:45.100Z,61.80
2018-07-23T18:32:18.013Z,61.50
2018-07-23T18:34:51.921Z,61.80
2018-07-23T18:40:21.448Z,62.40
2018-07-23T18:42:56.592Z,63.20
2018-07-23T18:45:29.780Z,63.70
2018-07-23T18:48:04.607Z,64.30
2018-07-23T18:50:43.159Z,64.60
2018-07-23T18:53:25.224Z,65.30
2018-07-23T18:55:58.701Z,65.40
2018-07-23T18:58:35.424Z,65.90
2018-07-23T19:01:11.182Z,65.70
2018-07-23T19:09:30.559Z,66.40
2018-07-23T19:12:05.158Z,66.50
2018-07-23T19:14:42.070Z,66.60
2018-07-23T19:17:17.814Z,67.30
2018-07-23T19:19:56.536Z,67.60
2018-07-23T19:22:35.057Z,67.40
2018-07-23T19:25:13.467Z,68.40
2018-07-23T19:27:48.682Z,68.30
2018-07-23T19:30:23.433Z,69.10
2018-07-23T19:35:52.834Z,68.60
2018-07-23T19:38:26.870Z,68.30
2018-07-23T19:41:02.634Z,68.70
2018-07-23T19:46:37.060Z,69.30
2018-07-23T19:49:10.973Z,69.70
2018-07-23T19:51:44.881Z,69.80
2018-07-23T19:54:28.621Z,69.60
2018-07-23T19:57:03.763Z,69.10
2018-07-23T20:02:48.622Z,69.80
2018-07-23T20:05:24.299Z,70.00
2018-07-23T20:07:58.202Z,70.80
2018-07-23T20:10:33.036Z,71.20
2018-07-23T20:13:08.625Z,72.10
2018-07-23T20:15:50.385Z,72.50
2018-07-23T20:21:19.491Z,72.70
2018-07-23T20:24:08.759Z,72.90
2018-07-23T20:29:42.439Z,72.50
2018-07-23T20:32:17.211Z,71.80
2018-07-23T20:37:54.742Z,72.00
2018-07-23T20:40:28.350Z,71.50
2018-07-23T20:43:02.980Z,71.60
2018-07-23T20:45:37.884Z,70.80
2018-07-23T20:48:13.945Z,70.60
2018-07-23T20:53:49.084Z,70.40
2018-07-23T20:56:22.908Z,70.30
2018-07-23T20:58:58.762Z,70.80
2018-07-23T21:01:39.737Z,71.00
2018-07-23T21:07:17.812Z,69.80
2018-07-23T21:09:55.058Z,69.30
2018-07-23T21:12:30.495Z,69.10
2018-07-23T21:15:06.142Z,68.90
2018-07-23T21:17:40.944Z,68.40
2018-07-23T21:20:13.733Z,68.00
2018-07-23T21:22:46.948Z,67.80
2018-07-23T21:25:20.859Z,68.40
2018-07-23T21:27:55.286Z,67.80
2018-07-23T21:30:31.035Z,67.30
2018-07-23T21:41:45.734Z,68.60
2018-07-23T21:44:19.761Z,68.30
2018-07-23T21:46:53.465Z,67.80
2018-07-23T21:49:27.066Z,68.50
2018-07-23T21:52:00.058Z,68.60
2018-07-23T21:54:34.576Z,69.00
2018-07-23T21:57:10.947Z,68.60
2018-07-23T21:59:46.394Z,68.50
2018-07-23T22:02:20.783Z,68.70
2018-07-23T22:04:54.927Z,68.80
2018-07-23T22:07:29.320Z,69.00
2018-07-23T22:27:23.133Z,69.80
2018-07-23T22:29:57.352Z,69.80
2018-07-23T22:32:33.635Z,70.00
2018-07-23T22:35:06.911Z,70.40
2018-07-23T22:37:44.814Z,70.00
2018-07-23T22:40:18.414Z,70.10
2018-07-23T22:42:53.138Z,70.00
2018-07-23T22:45:27.047Z,69.40
2018-07-23T22:48:02.580Z,69.50
2018-07-23T22:50:37.527Z,69.80
2018-07-23T22:53:11.038Z,70.10
2018-07-23T22:55:45.037Z,70.00
2018-07-23T22:58:21.096Z,70.20
2018-07-23T23:00:56.647Z,70.30
2018-07-23T23:03:31.171Z,70.10
2018-07-23T23:06:06.099Z,70.10
2018-07-23T23:11:34.704Z,69.60
2018-07-23T23:31:26.377Z,70.10
2018-07-23T23:34:01.380Z,69.90
2018-07-23T23:36:36.521Z,69.50
2018-07-23T23:39:13.702Z,69.50
2018-07-23T23:41:49.426Z,69.40
2018-07-23T23:44:24.185Z,69.40
2018-07-23T23:46:58.884Z,70.90
2018-07-23T23:55:19.344Z,70.50
2018-07-23T23:57:52.916Z,70.90
